Aeroporto :
LOGIN :

Iscrizione | Disclaimer

   EN    FR    IT 

 










Sommario :    VFR   VFR Marginale   IFR   IFR Intensivo   IFR Molto Intensivo
Visibilità : 
Base nubi : 
>= 8 km
>= 3000ft
5 / 8 km
1000 / 3000 ft
1500m / 5 km
500 / 1000 ft
800 / 1500m
200 / 500 ft
< 800m
< 200 ft
Simboli :   Temporali  Nebbia  Neve Forte  Precipitazioni Forti  Vento > 20 kt
SIGMETs :   Varie  Temporali  Ghiacco  Turbolenza  Onda orograficha  Ceneri Vulcaniche






- Altitudine del aeroporto : 20 ft


EBFN - Koksijde

ULTIMO METAR :
  • 210855Z 12009KT 3800 BR SCT005 BKN007 00/M01 Q1007 YLO GRN TEMPO YLO

METARs OBSOLETI :
  • 210825Z 12008KT 4500 BR BKN007 M00/M01 Q1007 GRN GRN TEMPO YLO
  • 210755Z 11007KT 4500 BR BKN008 M01/M01 Q1007 GRN GRN TEMPO YLO
  • 210725Z 10006KT 4500 BR FEW010 SCT200 M01/M02 Q1007 GRN GRN TEMPO YLO
  • 210655Z 10007KT 4200 BR SCT200 M01/M02 Q1007 GRN GRN TEMPO YLO
  • 210647Z 10007KT 4200 BR SCT200 M01/M02 Q1008 GRN GRN TEMPO YLO
  • 210625Z 10007KT 5000 BR SCT200 M01/M02 Q1008 WHT WHT TEMPO GRN
  • 210555Z 10006KT 5000 BR FEW200 M01/M02 Q1008 WHT WHT TEMPO GRN

TAF TAF EBFN
Valido dal 21 a 07 ore il 21 a 16 ore UTC


210541Z 2107/2116 11010KT 3500 BR SCT200
BECMG 2107/2109 4500 BR
BECMG 2109/2111 8000 NSW
BECMG 2110/2112 SCT010 BKN012



MetMap, La meteo Aeronautica in un colpo d'occhio ! - Copyright ORBIFLY Dicembre 2007 - Disclaimer

ORBIFLY MET'MAP TEAM :

Programmazione e sviluppo : Alexandra Zaïnal
Concezione e sviluppo : Baudouin d'Aumeries
Co-Programmazione e sviluppo : Marc-Olivier Méhu
Supporto tecnico e logistico : Manuel Goepfert
Aiuto per la traduzione : Arnaldo La Scala

Contatto : metmap@orbifly.com




FONTI E CREDITI :

   NOAA